Terminal Aerodrome Forecast
Issued by NWS Lake Charles, LA

Home | Current Version | Previous Version | Text Only | Print | Product List | Glossary On
Versions: 1 2 3 4 5 6 7 8 9 10 11 12 13 14
000
FTUS44 KLCH 310500
TAFLFT
TAF
KLFT 310520Z 3106/0106 07003KT P6SM BKN200
     FM311500 10008KT P6SM FEW025 SCT050 OVC200
     FM010400 10005KT P6SM VCSH SCT025 OVC035=

USA.gov is the U.S. government's official web portal to all federal, state and local government web resources and services.